Parrott, Georgia
Current Conditions -  °F | °C
As of 3:30 AM on Saturday 22 Nov 2014 (Local Time) from KACJ Reporting Station
Clear Clear  
Wind Chill: 33°   Ceiling: Unl
Heat Index: 37°   Visibility: 10mi
Dew Point: 36°   Wind: 6mph
Humidity: 93%   Direction: 60°ENE
Pressure: 30.41"   Gusts: NA
Location:  31.89°N, 84.51°W
Report Text: KACJ 220830Z AUTO 06005KT 10SM CLR 03/02 A3041 RMK AO2
Loading
Personal Weather Stations






























Interactive Weather Map New forecast layout! Learn more

10-Day Weather Forecast

Advertisements
Track Severe Weather on mobile